sensor_id;sensor_type;location;lat;lon;timestamp;P1;durP1;ratioP1;P2;durP2;ratioP2
76069;SDS011;64768;51.738;5.852;2022-12-01T02:30:59;46.03;;;18.80;;
76069;SDS011;64768;51.738;5.852;2022-12-01T02:33:52;50.90;;;18.10;;
76069;SDS011;64768;51.738;5.852;2022-12-01T02:36:31;54.70;;;20.15;;
76069;SDS011;64768;51.738;5.852;2022-12-01T02:39:20;52.05;;;18.70;;
76069;SDS011;64768;51.738;5.852;2022-12-01T02:42:40;51.75;;;18.83;;
76069;SDS011;64768;51.738;5.852;2022-12-01T02:48:42;45.25;;;17.45;;
76069;SDS011;64768;51.738;5.852;2022-12-01T02:51:51;48.17;;;18.08;;
76069;SDS011;64768;51.738;5.852;2022-12-01T02:54:42;51.30;;;19.65;;
76069;SDS011;64768;51.738;5.852;2022-12-01T02:57:37;46.25;;;16.95;;
76069;SDS011;64768;51.738;5.852;2022-12-01T03:00:47;51.05;;;20.48;;
76069;SDS011;64768;51.738;5.852;2022-12-01T03:17:55;46.00;;;16.95;;
76069;SDS011;64768;51.738;5.852;2022-12-01T03:55:29;37.83;;;15.55;;
76069;SDS011;64768;51.738;5.852;2022-12-01T04:02:11;38.47;;;15.27;;
76069;SDS011;64768;51.738;5.852;2022-12-01T06:54:18;50.75;;;19.02;;
76069;SDS011;64768;51.738;5.852;2022-12-01T06:56:47;49.85;;;20.00;;
76069;SDS011;64768;51.738;5.852;2022-12-01T06:59:15;54.63;;;21.17;;
76069;SDS011;64768;51.738;5.852;2022-12-01T07:01:45;50.10;;;18.90;;
76069;SDS011;64768;51.738;5.852;2022-12-01T07:04:15;48.20;;;19.73;;
76069;SDS011;64768;51.738;5.852;2022-12-01T07:06:44;47.58;;;18.73;;
76069;SDS011;64768;51.738;5.852;2022-12-01T07:09:13;39.53;;;14.68;;
76069;SDS011;64768;51.738;5.852;2022-12-01T07:14:17;45.83;;;19.38;;
76069;SDS011;64768;51.738;5.852;2022-12-01T07:16:50;42.00;;;18.38;;
76069;SDS011;64768;51.738;5.852;2022-12-01T07:19:19;39.97;;;15.93;;
76069;SDS011;64768;51.738;5.852;2022-12-01T07:21:51;46.92;;;21.10;;
76069;SDS011;64768;51.738;5.852;2022-12-01T07:24:20;45.03;;;17.08;;
76069;SDS011;64768;51.738;5.852;2022-12-01T07:29:27;54.67;;;18.88;;
76069;SDS011;64768;51.738;5.852;2022-12-01T07:31:55;52.15;;;21.52;;
76069;SDS011;64768;51.738;5.852;2022-12-01T07:34:24;54.78;;;20.58;;
76069;SDS011;64768;51.738;5.852;2022-12-01T07:36:52;43.17;;;16.60;;
76069;SDS011;64768;51.738;5.852;2022-12-01T07:39:21;49.55;;;19.10;;
76069;SDS011;64768;51.738;5.852;2022-12-01T07:41:49;56.45;;;22.58;;
76069;SDS011;64768;51.738;5.852;2022-12-01T07:44:18;51.88;;;18.73;;
76069;SDS011;64768;51.738;5.852;2022-12-01T07:46:49;28.67;;;11.95;;
76069;SDS011;64768;51.738;5.852;2022-12-01T07:49:18;42.22;;;18.27;;
76069;SDS011;64768;51.738;5.852;2022-12-01T07:51:46;48.63;;;20.13;;
76069;SDS011;64768;51.738;5.852;2022-12-01T07:54:15;51.83;;;20.25;;
76069;SDS011;64768;51.738;5.852;2022-12-01T07:59:13;18.75;;;8.77;;
76069;SDS011;64768;51.738;5.852;2022-12-01T08:01:42;52.83;;;21.48;;
76069;SDS011;64768;51.738;5.852;2022-12-01T08:04:13;45.13;;;19.42;;
76069;SDS011;64768;51.738;5.852;2022-12-01T08:06:42;50.20;;;19.50;;
76069;SDS011;64768;51.738;5.852;2022-12-01T08:09:10;41.20;;;17.40;;
76069;SDS011;64768;51.738;5.852;2022-12-01T08:11:39;50.25;;;21.00;;
76069;SDS011;64768;51.738;5.852;2022-12-01T08:14:07;43.08;;;16.65;;
76069;SDS011;64768;51.738;5.852;2022-12-01T08:16:36;42.28;;;15.63;;
76069;SDS011;64768;51.738;5.852;2022-12-01T08:19:05;47.80;;;19.13;;
76069;SDS011;64768;51.738;5.852;2022-12-01T08:21:36;29.73;;;11.80;;
76069;SDS011;64768;51.738;5.852;2022-12-01T08:24:05;40.63;;;16.90;;
76069;SDS011;64768;51.738;5.852;2022-12-01T08:26:34;39.05;;;17.75;;
76069;SDS011;64768;51.738;5.852;2022-12-01T08:29:02;48.28;;;16.48;;
76069;SDS011;64768;51.738;5.852;2022-12-01T08:31:32;40.80;;;15.35;;
76069;SDS011;64768;51.738;5.852;2022-12-01T08:34:03;48.35;;;21.05;;
76069;SDS011;64768;51.738;5.852;2022-12-01T08:39:05;54.85;;;20.25;;
76069;SDS011;64768;51.738;5.852;2022-12-01T08:41:35;47.45;;;16.98;;
76069;SDS011;64768;51.738;5.852;2022-12-01T08:44:03;54.65;;;21.13;;
76069;SDS011;64768;51.738;5.852;2022-12-01T08:46:34;44.03;;;18.25;;
76069;SDS011;64768;51.738;5.852;2022-12-01T08:49:04;37.92;;;14.98;;
76069;SDS011;64768;51.738;5.852;2022-12-01T08:51:36;46.08;;;14.77;;
76069;SDS011;64768;51.738;5.852;2022-12-01T08:54:04;45.63;;;18.60;;
76069;SDS011;64768;51.738;5.852;2022-12-01T08:56:33;55.58;;;19.75;;
76069;SDS011;64768;51.738;5.852;2022-12-01T08:59:04;31.25;;;11.88;;
76069;SDS011;64768;51.738;5.852;2022-12-01T09:01:33;58.17;;;22.50;;
76069;SDS011;64768;51.738;5.852;2022-12-01T09:04:16;56.15;;;22.90;;
76069;SDS011;64768;51.738;5.852;2022-12-01T09:06:48;62.67;;;23.75;;
76069;SDS011;64768;51.738;5.852;2022-12-01T09:09:19;60.00;;;24.17;;
76069;SDS011;64768;51.738;5.852;2022-12-01T09:11:49;49.65;;;18.85;;
76069;SDS011;64768;51.738;5.852;2022-12-01T09:14:19;59.03;;;24.70;;
76069;SDS011;64768;51.738;5.852;2022-12-01T09:16:49;63.38;;;24.35;;
76069;SDS011;64768;51.738;5.852;2022-12-01T09:19:18;49.80;;;18.15;;
76069;SDS011;64768;51.738;5.852;2022-12-01T09:21:49;58.00;;;25.98;;
76069;SDS011;64768;51.738;5.852;2022-12-01T09:24:18;60.55;;;23.40;;
76069;SDS011;64768;51.738;5.852;2022-12-01T09:26:46;53.38;;;21.40;;
76069;SDS011;64768;51.738;5.852;2022-12-01T09:29:15;52.03;;;21.25;;
76069;SDS011;64768;51.738;5.852;2022-12-01T09:31:44;50.53;;;19.20;;
76069;SDS011;64768;51.738;5.852;2022-12-01T09:34:14;48.17;;;20.02;;
76069;SDS011;64768;51.738;5.852;2022-12-01T09:36:44;51.72;;;21.23;;
76069;SDS011;64768;51.738;5.852;2022-12-01T09:39:17;55.17;;;20.98;;
76069;SDS011;64768;51.738;5.852;2022-12-01T09:41:48;51.08;;;20.25;;
76069;SDS011;64768;51.738;5.852;2022-12-01T09:44:26;50.03;;;19.00;;
76069;SDS011;64768;51.738;5.852;2022-12-01T09:46:59;49.13;;;17.77;;
76069;SDS011;64768;51.738;5.852;2022-12-01T09:52:08;43.78;;;16.88;;
76069;SDS011;64768;51.738;5.852;2022-12-01T09:54:42;51.42;;;18.88;;
76069;SDS011;64768;51.738;5.852;2022-12-01T09:57:13;48.60;;;19.20;;
76069;SDS011;64768;51.738;5.852;2022-12-01T09:59:45;45.30;;;19.52;;
76069;SDS011;64768;51.738;5.852;2022-12-01T10:02:20;49.65;;;21.23;;
76069;SDS011;64768;51.738;5.852;2022-12-01T10:04:54;36.47;;;12.88;;
76069;SDS011;64768;51.738;5.852;2022-12-01T10:07:25;40.35;;;15.82;;
76069;SDS011;64768;51.738;5.852;2022-12-01T10:09:58;44.40;;;18.85;;
76069;SDS011;64768;51.738;5.852;2022-12-01T10:12:31;50.17;;;21.33;;
76069;SDS011;64768;51.738;5.852;2022-12-01T10:15:15;47.22;;;16.17;;
76069;SDS011;64768;51.738;5.852;2022-12-01T10:17:54;55.65;;;18.95;;
76069;SDS011;64768;51.738;5.852;2022-12-01T10:20:35;48.10;;;20.45;;
76069;SDS011;64768;51.738;5.852;2022-12-01T10:23:21;41.13;;;17.83;;
76069;SDS011;64768;51.738;5.852;2022-12-01T10:26:06;53.63;;;20.52;;
76069;SDS011;64768;51.738;5.852;2022-12-01T10:28:43;34.40;;;13.93;;
76069;SDS011;64768;51.738;5.852;2022-12-01T10:31:23;47.17;;;20.38;;
76069;SDS011;64768;51.738;5.852;2022-12-01T10:33:59;52.67;;;20.13;;
76069;SDS011;64768;51.738;5.852;2022-12-01T10:36:30;37.55;;;15.23;;
76069;SDS011;64768;51.738;5.852;2022-12-01T10:39:00;54.58;;;20.88;;
76069;SDS011;64768;51.738;5.852;2022-12-01T10:41:34;51.22;;;19.23;;
76069;SDS011;64768;51.738;5.852;2022-12-01T10:44:04;45.35;;;19.88;;
76069;SDS011;64768;51.738;5.852;2022-12-01T10:46:37;50.10;;;19.83;;
76069;SDS011;64768;51.738;5.852;2022-12-01T10:49:11;45.00;;;16.80;;
76069;SDS011;64768;51.738;5.852;2022-12-01T10:51:45;44.38;;;18.90;;
76069;SDS011;64768;51.738;5.852;2022-12-01T10:54:15;52.10;;;21.20;;
76069;SDS011;64768;51.738;5.852;2022-12-01T10:56:48;45.00;;;19.58;;
76069;SDS011;64768;51.738;5.852;2022-12-01T10:59:24;53.72;;;19.75;;
76069;SDS011;64768;51.738;5.852;2022-12-01T11:01:56;46.65;;;18.83;;
76069;SDS011;64768;51.738;5.852;2022-12-01T11:04:38;51.42;;;21.13;;
76069;SDS011;64768;51.738;5.852;2022-12-01T11:07:19;44.53;;;17.65;;
76069;SDS011;64768;51.738;5.852;2022-12-01T11:09:58;48.13;;;18.88;;
76069;SDS011;64768;51.738;5.852;2022-12-01T11:12:35;46.30;;;19.67;;
76069;SDS011;64768;51.738;5.852;2022-12-01T11:15:04;44.35;;;19.23;;
76069;SDS011;64768;51.738;5.852;2022-12-01T11:17:35;43.65;;;18.63;;
76069;SDS011;64768;51.738;5.852;2022-12-01T11:23:16;48.55;;;22.38;;
76069;SDS011;64768;51.738;5.852;2022-12-01T11:26:04;41.03;;;17.60;;
76069;SDS011;64768;51.738;5.852;2022-12-01T11:28:50;42.60;;;17.83;;
76069;SDS011;64768;51.738;5.852;2022-12-01T11:33:50;46.47;;;18.42;;
76069;SDS011;64768;51.738;5.852;2022-12-01T11:36:21;36.83;;;14.73;;
76069;SDS011;64768;51.738;5.852;2022-12-01T11:38:57;44.95;;;18.95;;
76069;SDS011;64768;51.738;5.852;2022-12-01T11:41:28;46.58;;;18.52;;
76069;SDS011;64768;51.738;5.852;2022-12-01T11:44:04;40.40;;;15.88;;
76069;SDS011;64768;51.738;5.852;2022-12-01T11:46:42;39.72;;;15.80;;
76069;SDS011;64768;51.738;5.852;2022-12-01T11:49:14;40.95;;;16.33;;
76069;SDS011;64768;51.738;5.852;2022-12-01T11:51:44;36.55;;;17.08;;
76069;SDS011;64768;51.738;5.852;2022-12-01T11:54:14;39.10;;;15.38;;
76069;SDS011;64768;51.738;5.852;2022-12-01T11:56:45;30.35;;;13.52;;
76069;SDS011;64768;51.738;5.852;2022-12-01T11:59:19;41.65;;;18.25;;
76069;SDS011;64768;51.738;5.852;2022-12-01T12:01:52;49.70;;;22.92;;
76069;SDS011;64768;51.738;5.852;2022-12-01T12:04:37;45.22;;;18.70;;
76069;SDS011;64768;51.738;5.852;2022-12-01T12:07:21;34.90;;;15.82;;
76069;SDS011;64768;51.738;5.852;2022-12-01T12:10:02;18.02;;;8.60;;
76069;SDS011;64768;51.738;5.852;2022-12-01T12:12:46;24.27;;;13.05;;
76069;SDS011;64768;51.738;5.852;2022-12-01T12:15:31;44.33;;;16.45;;
76069;SDS011;64768;51.738;5.852;2022-12-01T12:18:13;40.42;;;16.33;;
76069;SDS011;64768;51.738;5.852;2022-12-01T12:20:56;36.67;;;14.32;;
76069;SDS011;64768;51.738;5.852;2022-12-01T12:23:51;36.60;;;15.18;;
76069;SDS011;64768;51.738;5.852;2022-12-01T12:26:34;39.92;;;16.35;;
76069;SDS011;64768;51.738;5.852;2022-12-01T12:29:16;39.15;;;17.98;;
76069;SDS011;64768;51.738;5.852;2022-12-01T12:32:03;45.40;;;18.08;;
76069;SDS011;64768;51.738;5.852;2022-12-01T12:34:49;39.28;;;17.38;;
76069;SDS011;64768;51.738;5.852;2022-12-01T12:37:28;40.40;;;17.13;;
76069;SDS011;64768;51.738;5.852;2022-12-01T12:43:07;36.22;;;15.25;;
76069;SDS011;64768;51.738;5.852;2022-12-01T12:45:59;38.85;;;16.33;;
76069;SDS011;64768;51.738;5.852;2022-12-01T12:51:29;46.70;;;18.88;;
76069;SDS011;64768;51.738;5.852;2022-12-01T12:54:05;35.33;;;15.13;;
76069;SDS011;64768;51.738;5.852;2022-12-01T12:56:44;39.22;;;17.25;;
76069;SDS011;64768;51.738;5.852;2022-12-01T12:59:17;36.97;;;14.35;;
76069;SDS011;64768;51.738;5.852;2022-12-01T13:02:00;33.30;;;15.40;;
76069;SDS011;64768;51.738;5.852;2022-12-01T13:04:37;42.22;;;19.10;;
76069;SDS011;64768;51.738;5.852;2022-12-01T13:07:14;39.03;;;17.35;;
76069;SDS011;64768;51.738;5.852;2022-12-01T13:09:53;41.92;;;18.35;;
76069;SDS011;64768;51.738;5.852;2022-12-01T13:12:26;35.95;;;17.30;;
76069;SDS011;64768;51.738;5.852;2022-12-01T13:14:59;38.78;;;20.05;;
76069;SDS011;64768;51.738;5.852;2022-12-01T13:17:32;32.30;;;14.40;;
76069;SDS011;64768;51.738;5.852;2022-12-01T13:20:11;41.55;;;20.60;;
76069;SDS011;64768;51.738;5.852;2022-12-01T13:22:42;25.90;;;11.40;;
76069;SDS011;64768;51.738;5.852;2022-12-01T13:25:12;48.47;;;19.80;;
76069;SDS011;64768;51.738;5.852;2022-12-01T13:27:43;39.33;;;17.55;;
76069;SDS011;64768;51.738;5.852;2022-12-01T13:30:17;46.70;;;20.65;;
76069;SDS011;64768;51.738;5.852;2022-12-01T13:32:48;43.42;;;20.67;;
76069;SDS011;64768;51.738;5.852;2022-12-01T13:35:28;45.60;;;20.83;;
76069;SDS011;64768;51.738;5.852;2022-12-01T13:38:17;40.35;;;17.92;;
76069;SDS011;64768;51.738;5.852;2022-12-01T13:40:48;45.40;;;18.95;;
76069;SDS011;64768;51.738;5.852;2022-12-01T13:43:44;38.25;;;17.92;;
76069;SDS011;64768;51.738;5.852;2022-12-01T13:46:23;28.63;;;12.52;;
76069;SDS011;64768;51.738;5.852;2022-12-01T13:48:54;33.30;;;17.25;;
76069;SDS011;64768;51.738;5.852;2022-12-01T13:51:26;37.03;;;17.92;;
76069;SDS011;64768;51.738;5.852;2022-12-01T13:54:30;36.28;;;17.90;;
76069;SDS011;64768;51.738;5.852;2022-12-01T13:57:04;32.83;;;13.75;;
76069;SDS011;64768;51.738;5.852;2022-12-01T14:05:50;28.52;;;12.95;;
76069;SDS011;64768;51.738;5.852;2022-12-01T14:08:25;32.40;;;15.32;;
76069;SDS011;64768;51.738;5.852;2022-12-01T14:10:56;40.05;;;16.30;;
76069;SDS011;64768;51.738;5.852;2022-12-01T14:13:27;37.65;;;14.32;;
76069;SDS011;64768;51.738;5.852;2022-12-01T14:15:57;42.55;;;16.35;;
76069;SDS011;64768;51.738;5.852;2022-12-01T14:18:31;37.45;;;15.40;;
76069;SDS011;64768;51.738;5.852;2022-12-01T14:21:02;41.00;;;17.85;;
76069;SDS011;64768;51.738;5.852;2022-12-01T14:23:36;38.22;;;18.30;;
76069;SDS011;64768;51.738;5.852;2022-12-01T14:26:15;41.78;;;17.70;;
76069;SDS011;64768;51.738;5.852;2022-12-01T14:34:57;38.70;;;11.45;;
76069;SDS011;64768;51.738;5.852;2022-12-01T14:37:35;37.63;;;17.38;;
76069;SDS011;64768;51.738;5.852;2022-12-01T14:40:14;40.15;;;17.25;;
76069;SDS011;64768;51.738;5.852;2022-12-01T14:42:51;42.95;;;16.98;;
76069;SDS011;64768;51.738;5.852;2022-12-01T14:45:37;40.92;;;19.23;;
76069;SDS011;64768;51.738;5.852;2022-12-01T14:48:09;40.63;;;18.67;;
76069;SDS011;64768;51.738;5.852;2022-12-01T14:50:42;38.83;;;16.10;;
76069;SDS011;64768;51.738;5.852;2022-12-01T14:53:20;34.38;;;13.75;;
76069;SDS011;64768;51.738;5.852;2022-12-01T14:55:55;44.45;;;21.42;;
76069;SDS011;64768;51.738;5.852;2022-12-01T14:58:26;40.53;;;17.80;;
76069;SDS011;64768;51.738;5.852;2022-12-01T15:01:00;42.08;;;18.98;;
76069;SDS011;64768;51.738;5.852;2022-12-01T15:03:33;48.33;;;21.45;;
76069;SDS011;64768;51.738;5.852;2022-12-01T15:06:05;40.28;;;18.50;;
76069;SDS011;64768;51.738;5.852;2022-12-01T15:08:35;41.38;;;19.20;;
76069;SDS011;64768;51.738;5.852;2022-12-01T15:11:11;35.30;;;15.02;;
76069;SDS011;64768;51.738;5.852;2022-12-01T15:13:50;39.40;;;16.98;;
76069;SDS011;64768;51.738;5.852;2022-12-01T15:16:20;38.42;;;15.90;;
76069;SDS011;64768;51.738;5.852;2022-12-01T15:18:50;42.70;;;18.20;;
76069;SDS011;64768;51.738;5.852;2022-12-01T15:21:20;46.65;;;19.08;;
76069;SDS011;64768;51.738;5.852;2022-12-01T15:23:55;44.15;;;19.20;;
76069;SDS011;64768;51.738;5.852;2022-12-01T15:26:28;49.03;;;20.02;;
76069;SDS011;64768;51.738;5.852;2022-12-01T15:29:03;41.92;;;18.98;;
76069;SDS011;64768;51.738;5.852;2022-12-01T15:31:43;40.30;;;21.20;;
76069;SDS011;64768;51.738;5.852;2022-12-01T15:34:15;46.75;;;19.88;;
76069;SDS011;64768;51.738;5.852;2022-12-01T15:36:47;42.03;;;17.15;;
76069;SDS011;64768;51.738;5.852;2022-12-01T15:39:18;36.55;;;15.63;;
76069;SDS011;64768;51.738;5.852;2022-12-01T15:41:53;44.03;;;19.90;;
76069;SDS011;64768;51.738;5.852;2022-12-01T15:44:25;40.58;;;16.00;;
76069;SDS011;64768;51.738;5.852;2022-12-01T15:46:55;39.42;;;17.17;;
76069;SDS011;64768;51.738;5.852;2022-12-01T15:49:25;44.10;;;17.67;;
76069;SDS011;64768;51.738;5.852;2022-12-01T15:52:04;44.35;;;19.58;;
76069;SDS011;64768;51.738;5.852;2022-12-01T15:54:35;37.38;;;18.00;;
76069;SDS011;64768;51.738;5.852;2022-12-01T15:57:07;49.63;;;21.65;;
76069;SDS011;64768;51.738;5.852;2022-12-01T15:59:43;52.65;;;23.15;;
76069;SDS011;64768;51.738;5.852;2022-12-01T16:02:22;50.80;;;22.55;;
76069;SDS011;64768;51.738;5.852;2022-12-01T16:04:58;43.03;;;17.95;;
76069;SDS011;64768;51.738;5.852;2022-12-01T16:07:32;54.70;;;24.05;;
76069;SDS011;64768;51.738;5.852;2022-12-01T16:10:03;55.72;;;26.30;;
76069;SDS011;64768;51.738;5.852;2022-12-01T16:12:37;49.72;;;22.55;;
76069;SDS011;64768;51.738;5.852;2022-12-01T16:15:11;53.08;;;23.13;;
76069;SDS011;64768;51.738;5.852;2022-12-01T16:17:43;55.67;;;24.67;;
76069;SDS011;64768;51.738;5.852;2022-12-01T16:20:17;47.17;;;20.17;;
76069;SDS011;64768;51.738;5.852;2022-12-01T16:22:52;51.33;;;23.48;;
76069;SDS011;64768;51.738;5.852;2022-12-01T16:25:27;52.55;;;21.17;;
76069;SDS011;64768;51.738;5.852;2022-12-01T16:28:04;53.50;;;21.50;;
76069;SDS011;64768;51.738;5.852;2022-12-01T16:30:37;53.45;;;24.65;;
76069;SDS011;64768;51.738;5.852;2022-12-01T16:33:12;58.17;;;25.40;;
76069;SDS011;64768;51.738;5.852;2022-12-01T16:35:43;49.15;;;20.00;;
76069;SDS011;64768;51.738;5.852;2022-12-01T16:38:12;52.15;;;22.08;;
76069;SDS011;64768;51.738;5.852;2022-12-01T16:40:45;43.70;;;17.65;;
76069;SDS011;64768;51.738;5.852;2022-12-01T16:45:46;42.70;;;17.70;;
76069;SDS011;64768;51.738;5.852;2022-12-01T16:48:17;39.03;;;17.88;;
76069;SDS011;64768;51.738;5.852;2022-12-01T16:50:45;45.17;;;18.45;;
76069;SDS011;64768;51.738;5.852;2022-12-01T16:53:14;48.15;;;18.38;;
76069;SDS011;64768;51.738;5.852;2022-12-01T16:55:45;49.08;;;18.88;;
76069;SDS011;64768;51.738;5.852;2022-12-01T16:58:18;38.25;;;17.50;;
76069;SDS011;64768;51.738;5.852;2022-12-01T17:00:47;44.20;;;19.05;;
76069;SDS011;64768;51.738;5.852;2022-12-01T17:03:17;47.30;;;20.10;;
76069;SDS011;64768;51.738;5.852;2022-12-01T17:05:47;41.03;;;19.10;;
76069;SDS011;64768;51.738;5.852;2022-12-01T17:08:17;40.53;;;19.17;;
76069;SDS011;64768;51.738;5.852;2022-12-01T17:10:46;47.08;;;18.70;;
76069;SDS011;64768;51.738;5.852;2022-12-01T17:13:18;42.58;;;17.45;;
76069;SDS011;64768;51.738;5.852;2022-12-01T17:15:49;45.92;;;19.95;;
76069;SDS011;64768;51.738;5.852;2022-12-01T17:18:19;45.70;;;21.60;;
76069;SDS011;64768;51.738;5.852;2022-12-01T17:20:55;40.42;;;17.33;;
76069;SDS011;64768;51.738;5.852;2022-12-01T17:23:27;46.08;;;19.63;;
76069;SDS011;64768;51.738;5.852;2022-12-01T17:26:04;46.20;;;18.65;;
76069;SDS011;64768;51.738;5.852;2022-12-01T17:28:38;46.55;;;22.65;;
76069;SDS011;64768;51.738;5.852;2022-12-01T17:31:06;46.30;;;18.77;;
76069;SDS011;64768;51.738;5.852;2022-12-01T17:33:36;48.95;;;21.30;;
76069;SDS011;64768;51.738;5.852;2022-12-01T17:36:05;41.75;;;17.73;;
76069;SDS011;64768;51.738;5.852;2022-12-01T17:38:38;43.95;;;19.60;;
76069;SDS011;64768;51.738;5.852;2022-12-01T17:41:09;39.75;;;18.10;;
76069;SDS011;64768;51.738;5.852;2022-12-01T17:43:42;40.63;;;15.38;;
76069;SDS011;64768;51.738;5.852;2022-12-01T17:46:11;45.95;;;19.38;;
76069;SDS011;64768;51.738;5.852;2022-12-01T17:48:41;44.15;;;20.48;;
76069;SDS011;64768;51.738;5.852;2022-12-01T17:51:11;44.70;;;19.30;;
76069;SDS011;64768;51.738;5.852;2022-12-01T17:53:41;48.35;;;19.40;;
76069;SDS011;64768;51.738;5.852;2022-12-01T17:56:10;43.88;;;17.70;;
76069;SDS011;64768;51.738;5.852;2022-12-01T17:58:43;39.60;;;16.33;;
76069;SDS011;64768;51.738;5.852;2022-12-01T18:01:12;43.25;;;18.30;;
76069;SDS011;64768;51.738;5.852;2022-12-01T18:03:45;37.83;;;16.88;;
76069;SDS011;64768;51.738;5.852;2022-12-01T18:06:14;37.97;;;15.05;;
76069;SDS011;64768;51.738;5.852;2022-12-01T18:08:45;45.75;;;19.42;;
76069;SDS011;64768;51.738;5.852;2022-12-01T18:11:14;44.40;;;18.70;;
76069;SDS011;64768;51.738;5.852;2022-12-01T18:13:46;44.47;;;19.17;;
76069;SDS011;64768;51.738;5.852;2022-12-01T18:16:17;45.65;;;19.48;;
76069;SDS011;64768;51.738;5.852;2022-12-01T18:18:46;45.25;;;18.52;;
76069;SDS011;64768;51.738;5.852;2022-12-01T18:21:16;47.92;;;21.45;;
76069;SDS011;64768;51.738;5.852;2022-12-01T18:23:47;47.60;;;20.35;;
76069;SDS011;64768;51.738;5.852;2022-12-01T18:28:49;50.83;;;20.58;;
76069;SDS011;64768;51.738;5.852;2022-12-01T18:31:20;30.98;;;13.35;;
76069;SDS011;64768;51.738;5.852;2022-12-01T18:33:49;44.03;;;19.25;;
76069;SDS011;64768;51.738;5.852;2022-12-01T18:36:19;44.28;;;21.42;;
76069;SDS011;64768;51.738;5.852;2022-12-01T18:38:49;45.67;;;19.85;;
76069;SDS011;64768;51.738;5.852;2022-12-01T18:41:19;44.10;;;18.83;;
76069;SDS011;64768;51.738;5.852;2022-12-01T18:43:51;37.42;;;14.82;;
76069;SDS011;64768;51.738;5.852;2022-12-01T18:46:19;42.67;;;17.83;;
76069;SDS011;64768;51.738;5.852;2022-12-01T18:48:49;45.15;;;17.80;;
76069;SDS011;64768;51.738;5.852;2022-12-01T18:51:23;42.05;;;19.00;;
76069;SDS011;64768;51.738;5.852;2022-12-01T18:53:52;35.20;;;14.55;;
76069;SDS011;64768;51.738;5.852;2022-12-01T18:56:21;43.28;;;16.45;;
76069;SDS011;64768;51.738;5.852;2022-12-01T18:58:55;41.38;;;17.75;;
76069;SDS011;64768;51.738;5.852;2022-12-01T19:01:24;50.00;;;19.55;;
76069;SDS011;64768;51.738;5.852;2022-12-01T19:06:23;38.60;;;18.08;;
76069;SDS011;64768;51.738;5.852;2022-12-01T19:08:52;42.33;;;16.25;;
76069;SDS011;64768;51.738;5.852;2022-12-01T19:11:21;47.17;;;20.13;;
76069;SDS011;64768;51.738;5.852;2022-12-01T19:13:49;44.08;;;17.48;;
76069;SDS011;64768;51.738;5.852;2022-12-01T19:16:20;49.58;;;21.90;;
76069;SDS011;64768;51.738;5.852;2022-12-01T19:18:49;39.95;;;14.70;;
76069;SDS011;64768;51.738;5.852;2022-12-01T19:21:18;52.90;;;22.45;;
76069;SDS011;64768;51.738;5.852;2022-12-01T19:23:47;55.70;;;24.45;;
76069;SDS011;64768;51.738;5.852;2022-12-01T19:26:16;56.53;;;21.80;;
76069;SDS011;64768;51.738;5.852;2022-12-01T19:28:46;56.25;;;19.85;;
76069;SDS011;64768;51.738;5.852;2022-12-01T19:31:16;51.72;;;19.25;;
76069;SDS011;64768;51.738;5.852;2022-12-01T19:33:49;59.13;;;21.98;;
76069;SDS011;64768;51.738;5.852;2022-12-01T19:36:19;65.90;;;26.88;;
76069;SDS011;64768;51.738;5.852;2022-12-01T19:38:49;60.20;;;21.75;;
76069;SDS011;64768;51.738;5.852;2022-12-01T19:41:18;62.60;;;23.70;;
76069;SDS011;64768;51.738;5.852;2022-12-01T19:43:49;64.07;;;23.02;;
76069;SDS011;64768;51.738;5.852;2022-12-01T19:46:19;62.20;;;21.92;;
76069;SDS011;64768;51.738;5.852;2022-12-01T19:48:57;67.60;;;22.50;;
76069;SDS011;64768;51.738;5.852;2022-12-01T19:51:28;62.70;;;23.45;;
76069;SDS011;64768;51.738;5.852;2022-12-01T19:53:59;64.93;;;25.60;;
76069;SDS011;64768;51.738;5.852;2022-12-01T19:56:27;51.35;;;18.35;;
76069;SDS011;64768;51.738;5.852;2022-12-01T19:58:58;66.00;;;21.27;;
76069;SDS011;64768;51.738;5.852;2022-12-01T20:01:27;52.30;;;20.90;;
76069;SDS011;64768;51.738;5.852;2022-12-01T20:03:58;55.88;;;21.58;;
76069;SDS011;64768;51.738;5.852;2022-12-01T20:06:27;56.88;;;18.90;;
76069;SDS011;64768;51.738;5.852;2022-12-01T20:09:00;67.82;;;26.70;;
76069;SDS011;64768;51.738;5.852;2022-12-01T20:11:31;61.58;;;22.90;;
76069;SDS011;64768;51.738;5.852;2022-12-01T20:14:01;56.13;;;20.73;;
76069;SDS011;64768;51.738;5.852;2022-12-01T20:16:31;70.28;;;27.83;;
76069;SDS011;64768;51.738;5.852;2022-12-01T20:19:03;51.45;;;18.80;;
76069;SDS011;64768;51.738;5.852;2022-12-01T20:21:33;70.18;;;24.42;;
76069;SDS011;64768;51.738;5.852;2022-12-01T20:24:03;61.33;;;22.10;;
76069;SDS011;64768;51.738;5.852;2022-12-01T20:26:35;57.83;;;22.92;;
76069;SDS011;64768;51.738;5.852;2022-12-01T20:29:06;57.55;;;20.98;;
76069;SDS011;64768;51.738;5.852;2022-12-01T20:31:36;62.70;;;25.08;;
76069;SDS011;64768;51.738;5.852;2022-12-01T20:34:09;60.20;;;23.10;;
76069;SDS011;64768;51.738;5.852;2022-12-01T20:36:39;59.35;;;20.70;;
76069;SDS011;64768;51.738;5.852;2022-12-01T20:39:08;72.15;;;26.38;;
76069;SDS011;64768;51.738;5.852;2022-12-01T20:41:38;77.82;;;26.85;;
76069;SDS011;64768;51.738;5.852;2022-12-01T20:44:07;70.82;;;25.33;;
76069;SDS011;64768;51.738;5.852;2022-12-01T20:46:36;77.18;;;28.15;;
76069;SDS011;64768;51.738;5.852;2022-12-01T20:49:08;66.75;;;21.90;;
76069;SDS011;64768;51.738;5.852;2022-12-01T20:51:37;68.82;;;24.92;;
76069;SDS011;64768;51.738;5.852;2022-12-01T20:54:06;64.57;;;22.55;;
76069;SDS011;64768;51.738;5.852;2022-12-01T20:56:36;67.95;;;23.05;;
76069;SDS011;64768;51.738;5.852;2022-12-01T20:59:05;73.03;;;26.90;;
76069;SDS011;64768;51.738;5.852;2022-12-01T21:01:34;77.78;;;25.75;;
76069;SDS011;64768;51.738;5.852;2022-12-01T21:04:03;72.28;;;28.20;;
76069;SDS011;64768;51.738;5.852;2022-12-01T21:06:35;74.78;;;24.15;;
76069;SDS011;64768;51.738;5.852;2022-12-01T21:09:03;59.55;;;20.80;;
76069;SDS011;64768;51.738;5.852;2022-12-01T21:11:33;67.28;;;23.50;;
76069;SDS011;64768;51.738;5.852;2022-12-01T21:14:17;78.00;;;29.50;;
76069;SDS011;64768;51.738;5.852;2022-12-01T21:16:51;84.75;;;31.13;;
76069;SDS011;64768;51.738;5.852;2022-12-01T21:19:25;81.38;;;31.15;;
76069;SDS011;64768;51.738;5.852;2022-12-01T21:22:03;72.15;;;27.95;;
76069;SDS011;64768;51.738;5.852;2022-12-01T21:24:37;77.20;;;25.52;;
76069;SDS011;64768;51.738;5.852;2022-12-01T21:27:14;65.72;;;24.88;;
76069;SDS011;64768;51.738;5.852;2022-12-01T21:29:45;71.45;;;27.45;;
76069;SDS011;64768;51.738;5.852;2022-12-01T21:32:15;71.72;;;26.33;;
76069;SDS011;64768;51.738;5.852;2022-12-01T21:34:45;75.43;;;26.15;;
76069;SDS011;64768;51.738;5.852;2022-12-01T21:37:19;75.28;;;25.23;;
76069;SDS011;64768;51.738;5.852;2022-12-01T21:39:49;74.32;;;26.88;;
76069;SDS011;64768;51.738;5.852;2022-12-01T21:42:19;74.88;;;27.88;;
76069;SDS011;64768;51.738;5.852;2022-12-01T21:47:19;74.35;;;25.85;;
76069;SDS011;64768;51.738;5.852;2022-12-01T21:49:49;76.85;;;28.95;;
76069;SDS011;64768;51.738;5.852;2022-12-01T21:52:22;75.38;;;27.40;;
76069;SDS011;64768;51.738;5.852;2022-12-01T21:54:55;49.40;;;17.73;;
76069;SDS011;64768;51.738;5.852;2022-12-01T21:57:32;78.18;;;29.08;;
76069;SDS011;64768;51.738;5.852;2022-12-01T22:00:21;74.10;;;26.95;;